Latest Coastal Weather Observations for Barrow Island

IDW60701

Issued at 12:23 pm WST Sunday 17 December 2017 (issued every 10 minutes, with the page automatically refreshed every 10 minutes)

About coastal observations | Map of coastal stations | Coastal observations for WA | Marine services | Other Formats
Station Details ID: 005094 Name: BARROW ISLAND AIRPORT Lat: -20.87 Lon: 115.41 Height: 6.4 m
Data from the previous 72 hours. | See also: Recent months at Barrow Island
Date/Time
WST
Temp
°C
Wind Pressure Rain since
9am
mm
Weather Cloud Vis
km
Sea
Height
m
Swell
Dir  Spd
kts
Gust
kts
hPa Trend Height
m
Period
s
Dir
17/12:00pm 26.7 SW 23 27 1009.7 - - - - - - - - -
17/11:30am 26.8 SW 21 24 1010.2 - - - - - - - - -
17/11:00am - - - - 1010.6 - - - - - - - - -
 
Date/Time
WST
Temp
°C
Wind Pressure Rain since
9am
mm
Weather Cloud Vis
km
Sea
Height
m
Swell
Dir  Spd
kts
Gust
kts
hPa Trend Height
m
Period
s
Dir
16/02:30pm 28.6 WSW 19 - 1008.5 - - - - - - - - -
16/02:00pm 27.8 WSW 22 26 1008.5 - 0.0 - - - - - - -
16/01:30pm 27.8 WSW 20 26 1008.9 - 0.0 - - - - - - -
16/01:00pm 27.5 SW 21 25 1009.0 - 0.0 - - - - - - -
16/12:30pm 27.7 SW 21 26 1009.1 - 0.0 - - - - - - -
16/12:00pm 27.5 SW 21 24 1009.6 - 0.0 - - - - - - -
16/11:30am 27.1 SW 21 25 1010.1 - 0.0 - - - - - - -
16/11:00am 27.2 SW 20 25 1010.1 - 0.0 - - - - - - -
16/10:30am 27.0 SW 20 23 1010.1 - 0.0 - - - - - - -
16/10:00am 27.0 SW 20 23 1010.2 - 0.0 - - - - - - -
16/09:30am 27.0 SW 20 23 1010.3 - 0.0 - - - - - - -
16/09:00am 26.6 SW 20 23 1010.1 - 0.0 - - - - - - -
16/08:30am 26.5 SW 19 23 1009.9 - 0.0 - - - - - - -
16/08:00am - - - - 1009.8 - 0.0 - - - - - - -
16/07:30am - - - - 1009.7 - 0.0 - - - - - - -
16/07:00am - - - - 1009.6 - 0.0 - - - - - - -
16/06:30am - - - - 1009.6 - 0.0 - - - - - - -
16/06:00am - - - - 1008.9 - 0.0 - - - - - - -
16/05:30am - - - - 1008.7 - 0.0 - - - - - - -
16/05:00am 24.5 SW 18 20 1008.2 - 0.0 - - - - - - -
16/04:30am 24.6 SW 14 19 1008.0 - 0.0 - - - - - - -
16/04:00am 24.8 SW 16 20 1007.9 - 0.0 - - - - - - -
16/03:30am 24.9 SW 17 22 1007.3 - 0.0 - - - - - - -
16/03:00am 25.1 SW 17 21 1007.1 - 0.0 - - - - - - -
16/02:30am 25.3 SW 19 23 1006.9 - 0.0 - - - - - - -
16/02:00am 25.3 SW 18 23 1006.9 - 0.0 - - - - - - -
16/01:30am 25.3 SW 18 22 1007.0 - 0.0 - - - - - - -
16/01:00am 25.6 SW 18 22 1007.3 - 0.0 - - - - - - -
16/12:30am 25.9 SW 17 20 1007.4 - 0.0 - - - - - - -
16/12:00am 26.1 SW 17 23 1007.6 - 0.0 - - - - - - -
 
Date/Time
WST
Temp
°C
Wind Pressure Rain since
9am
mm
Weather Cloud Vis
km
Sea
Height
m
Swell
Dir  Spd
kts
Gust
kts
hPa Trend Height
m
Period
s
Dir
15/11:30pm 26.1 SW 19 23 1007.7 - 0.0 - - - - - - -
15/11:00pm 26.3 WSW 19 23 1008.0 - 0.0 - - - - - - -
15/10:30pm 26.2 WSW 17 22 1007.7 - 0.0 - - - - - - -
15/10:00pm 26.1 WSW 17 22 1007.8 - 0.0 - - - - - - -
15/09:30pm 26.1 WSW 17 21 1007.7 - 0.0 - - - - - - -
15/09:00pm 26.1 WSW 18 23 1007.5 - 0.0 - - - - - - -
15/08:30pm 26.1 WSW 16 22 1007.3 - 0.0 - - - - - - -
15/08:00pm 26.1 WSW 16 20 1007.2 - 0.0 - - - - - - -
15/07:30pm 26.2 WSW 18 22 1006.8 - 0.0 - - - - - - -
15/07:00pm 26.3 WSW 17 22 1006.5 - 0.0 - - - - - - -
15/06:30pm 27.0 WSW 20 24 1006.4 - 0.0 - - - - - - -
15/06:00pm 27.5 W 20 24 1006.2 - 0.0 - - - - - - -
15/05:30pm 28.2 W 20 25 1006.1 - 0.0 - - - - - - -
15/05:00pm 28.3 W 21 25 1005.9 - 0.0 - - - - - - -
15/04:30pm 29.2 W 20 24 1005.8 - 0.0 - - - - - - -
15/04:00pm 29.6 W 19 24 1005.6 - 0.0 - - - - - - -
15/03:30pm 30.1 WSW 20 24 1005.8 - 0.0 - - - - - - -
15/03:00pm 29.7 WSW 21 25 1006.2 - 0.0 - - - - - - -
15/02:30pm 31.0 W 19 23 1006.5 - 0.0 - - - - - - -
15/02:00pm 30.0 WSW 20 23 1006.6 - 0.0 - - - - - - -
15/01:30pm 30.7 WSW 19 24 1006.9 - 0.0 - - - - - - -
15/01:00pm 30.9 W 17 21 1007.2 - 0.0 - - - - - - -
15/12:30pm 30.2 WSW 18 23 1007.5 - 0.0 - - - - - - -
15/12:00pm 29.8 WSW 18 23 1007.7 - 0.0 - - - - - - -
15/11:30am 30.0 WSW 18 23 1007.9 - 0.0 - - - - - - -
15/11:00am 29.2 SW 20 25 1007.9 - 0.0 - - - - - - -
15/10:30am 29.1 WSW 18 22 1008.3 - 0.0 - - - - - - -
15/10:00am 28.6 WSW 20 24 1008.3 - 0.0 - - - - - - -
15/09:30am 28.4 SW 19 23 1008.3 - 0.0 - - - - - - -
15/09:00am 27.9 WSW 20 24 1008.4 - 0.0 - - - - - - -
15/08:30am 28.0 WSW 20 24 1008.3 - 0.0 - - - - - - -
15/08:00am - - - - 1008.2 - 0.0 - - - - - - -
15/07:30am - - - - 1008.1 - 0.0 - - - - - - -
15/07:00am - - - - 1007.9 - 0.0 - - - - - - -
15/06:30am - - - - 1007.9 - 0.0 - - - - - - -
15/06:00am - - - - 1007.7 - 0.0 - - - - - - -
15/05:30am - - - - 1007.4 - 0.0 - - - - - - -
15/05:00am 25.0 W 16 21 1007.1 - 0.0 - - - - - - -
15/04:30am 25.0 W 14 19 1007.0 - 0.0 - - - - - - -
15/04:00am 24.9 W 15 19 1006.9 - 0.0 - - - - - - -
15/03:30am 24.9 W 16 19 1006.7 - 0.0 - - - - - - -
15/03:00am 24.9 W 15 18 1006.5 - 0.0 - - - - - - -
15/02:30am 25.0 W 16 19 1006.5 - 0.0 - - - - - - -
15/02:00am 24.9 W 14 19 1006.7 - 0.0 - - - - - - -
15/01:30am 25.0 W 14 17 1007.0 - 0.0 - - - - - - -
15/01:00am 25.0 W 13 17 1007.4 - 0.0 - - - - - - -
15/12:30am 25.1 W 12 16 1007.8 - 0.0 - - - - - - -
15/12:00am 25.0 W 11 13 1008.0 - 0.0 - - - - - - -
 
Date/Time
WST
Temp
°C
Wind Pressure Rain since
9am
mm
Weather Cloud Vis
km
Sea
Height
m
Swell
Dir  Spd
kts
Gust
kts
hPa Trend Height
m
Period
s
Dir
14/11:30pm 25.2 W 11 14 1008.1 - 0.0 - - - - - - -
14/11:00pm 25.5 W 13 16 1008.2 - 0.0 - - - - - - -
14/10:30pm 25.6 W 14 18 1008.3 - 0.0 - - - - - - -
14/10:00pm 25.5 W 11 13 1008.4 - 0.0 - - - - - - -
14/09:30pm 26.0 W 14 17 1008.1 - 0.0 - - - - - - -
14/09:00pm 26.1 W 13 16 1007.8 - 0.0 - - - - - - -
14/08:30pm 25.9 W 11 13 1007.8 - 0.0 - - - - - - -
14/08:00pm 26.2 W 12 17 1007.4 - 0.0 - - - - - - -
14/07:30pm 26.3 W 13 17 1007.0 - 0.0 - - - - - - -
14/07:00pm 26.5 W 16 19 1006.7 - 0.0 - - - - - - -
14/06:30pm 27.3 W 16 20 1006.5 - 0.0 - - - - - - -
14/06:00pm 28.1 W 17 21 1006.4 - 0.0 - - - - - - -
14/05:30pm 28.6 W 17 21 1006.2 - 0.0 - - - - - - -
14/05:00pm 29.0 W 17 21 1006.0 - 0.0 - - - - - - -
14/04:30pm 30.1 W 17 20 1006.1 - 0.0 - - - - - - -
14/04:00pm 30.4 W 18 22 1006.1 - 0.0 - - - - - - -
14/03:30pm 30.1 W 17 22 1006.1 - 0.0 - - - - - - -
14/03:00pm 30.6 W 17 21 1006.3 - 0.0 - - - - - - -
14/02:30pm 29.9 WSW 17 22 1006.6 - 0.0 - - - - - - -
14/02:00pm 30.9 W 16 21 1006.8 - 0.0 - - - - - - -
14/01:30pm 30.7 W 16 19 1007.1 - 0.0 - - - - - - -
14/01:00pm 30.7 W 15 18 1007.3 - 0.0 - - - - - - -
14/12:30pm 30.7 WSW 15 18 1007.6 - 0.0 - - - - - - -

Other Formats:

Comma delimited format used in spreadsheet applications
http://www.bom.gov.au/fwo/IDW60701/IDW60701.95304.axf

JavaScript Object Notation format (JSON) in row-major order
http://www.bom.gov.au/fwo/IDW60701/IDW60701.95304.json